sensor_id;sensor_type;location;lat;lon;timestamp;P1;durP1;ratioP1;P2;durP2;ratioP2
1957;SDS011;979;51.076;13.748;2023-09-30T00:01:10;23.93;;;21.73;;
1957;SDS011;979;51.076;13.748;2023-09-30T00:03:49;21.70;;;20.13;;
1957;SDS011;979;51.076;13.748;2023-09-30T00:06:33;20.40;;;19.00;;
1957;SDS011;979;51.076;13.748;2023-09-30T00:09:15;21.07;;;19.57;;
1957;SDS011;979;51.076;13.748;2023-09-30T00:11:51;21.70;;;20.20;;
1957;SDS011;979;51.076;13.748;2023-09-30T00:14:26;23.43;;;21.20;;
1957;SDS011;979;51.076;13.748;2023-09-30T00:17:07;20.73;;;19.20;;
1957;SDS011;979;51.076;13.748;2023-09-30T00:19:45;21.13;;;19.53;;
1957;SDS011;979;51.076;13.748;2023-09-30T00:22:21;21.07;;;19.57;;
1957;SDS011;979;51.076;13.748;2023-09-30T00:24:59;20.60;;;19.50;;
1957;SDS011;979;51.076;13.748;2023-09-30T00:27:40;19.30;;;18.20;;
1957;SDS011;979;51.076;13.748;2023-09-30T00:30:15;19.07;;;17.80;;
1957;SDS011;979;51.076;13.748;2023-09-30T00:32:55;18.03;;;17.23;;
1957;SDS011;979;51.076;13.748;2023-09-30T00:35:40;18.27;;;17.47;;
1957;SDS011;979;51.076;13.748;2023-09-30T00:38:18;18.27;;;17.40;;
1957;SDS011;979;51.076;13.748;2023-09-30T00:40:58;17.50;;;16.87;;
1957;SDS011;979;51.076;13.748;2023-09-30T00:43:38;18.37;;;17.47;;
1957;SDS011;979;51.076;13.748;2023-09-30T00:46:26;17.60;;;16.90;;
1957;SDS011;979;51.076;13.748;2023-09-30T00:49:14;17.73;;;17.03;;
1957;SDS011;979;51.076;13.748;2023-09-30T00:51:48;17.27;;;16.57;;
1957;SDS011;979;51.076;13.748;2023-09-30T00:54:28;17.10;;;16.40;;
1957;SDS011;979;51.076;13.748;2023-09-30T00:57:12;17.23;;;16.53;;
1957;SDS011;979;51.076;13.748;2023-09-30T00:59:50;17.77;;;16.77;;
1957;SDS011;979;51.076;13.748;2023-09-30T01:02:27;16.70;;;16.00;;
1957;SDS011;979;51.076;13.748;2023-09-30T01:05:12;15.93;;;15.33;;
1957;SDS011;979;51.076;13.748;2023-09-30T01:07:52;15.60;;;15.00;;
1957;SDS011;979;51.076;13.748;2023-09-30T01:10:33;15.10;;;14.60;;
1957;SDS011;979;51.076;13.748;2023-09-30T01:13:16;15.30;;;14.90;;
1957;SDS011;979;51.076;13.748;2023-09-30T01:15:45;15.80;;;15.00;;
1957;SDS011;979;51.076;13.748;2023-09-30T01:18:16;15.23;;;14.70;;
1957;SDS011;979;51.076;13.748;2023-09-30T01:20:46;15.60;;;14.90;;
1957;SDS011;979;51.076;13.748;2023-09-30T01:23:27;15.20;;;14.70;;
1957;SDS011;979;51.076;13.748;2023-09-30T01:26:06;16.07;;;15.37;;
1957;SDS011;979;51.076;13.748;2023-09-30T01:28:37;15.73;;;15.03;;
1957;SDS011;979;51.076;13.748;2023-09-30T01:31:15;15.60;;;15.10;;
1957;SDS011;979;51.076;13.748;2023-09-30T01:33:49;15.80;;;15.10;;
1957;SDS011;979;51.076;13.748;2023-09-30T01:36:36;15.20;;;14.70;;
1957;SDS011;979;51.076;13.748;2023-09-30T01:39:12;15.30;;;14.80;;
1957;SDS011;979;51.076;13.748;2023-09-30T01:41:45;15.60;;;15.10;;
1957;SDS011;979;51.076;13.748;2023-09-30T01:44:13;15.77;;;15.10;;
1957;SDS011;979;51.076;13.748;2023-09-30T01:46:42;16.00;;;15.40;;
1957;SDS011;979;51.076;13.748;2023-09-30T01:49:10;16.00;;;15.40;;
1957;SDS011;979;51.076;13.748;2023-09-30T01:51:38;15.87;;;15.20;;
1957;SDS011;979;51.076;13.748;2023-09-30T01:54:07;16.20;;;15.57;;
1957;SDS011;979;51.076;13.748;2023-09-30T01:56:47;15.63;;;15.03;;
1957;SDS011;979;51.076;13.748;2023-09-30T01:59:19;16.43;;;15.70;;
1957;SDS011;979;51.076;13.748;2023-09-30T02:01:58;16.40;;;15.67;;
1957;SDS011;979;51.076;13.748;2023-09-30T02:04:46;17.10;;;16.27;;
1957;SDS011;979;51.076;13.748;2023-09-30T02:07:41;15.83;;;15.30;;
1957;SDS011;979;51.076;13.748;2023-09-30T02:10:29;16.60;;;15.80;;
1957;SDS011;979;51.076;13.748;2023-09-30T02:13:26;16.23;;;15.60;;
1957;SDS011;979;51.076;13.748;2023-09-30T02:16:02;15.93;;;15.43;;
1957;SDS011;979;51.076;13.748;2023-09-30T02:18:48;15.87;;;15.37;;
1957;SDS011;979;51.076;13.748;2023-09-30T02:21:30;16.40;;;15.50;;
1957;SDS011;979;51.076;13.748;2023-09-30T02:24:09;16.17;;;15.40;;
1957;SDS011;979;51.076;13.748;2023-09-30T02:26:49;16.83;;;16.23;;
1957;SDS011;979;51.076;13.748;2023-09-30T02:29:31;16.00;;;15.30;;
1957;SDS011;979;51.076;13.748;2023-09-30T02:32:08;15.93;;;15.40;;
1957;SDS011;979;51.076;13.748;2023-09-30T02:34:49;16.23;;;15.53;;
1957;SDS011;979;51.076;13.748;2023-09-30T02:37:34;16.23;;;15.53;;
1957;SDS011;979;51.076;13.748;2023-09-30T02:40:17;16.37;;;15.57;;
1957;SDS011;979;51.076;13.748;2023-09-30T02:43:04;16.10;;;15.30;;
1957;SDS011;979;51.076;13.748;2023-09-30T02:46:25;17.40;;;15.93;;
1957;SDS011;979;51.076;13.748;2023-09-30T02:49:03;15.90;;;15.30;;
1957;SDS011;979;51.076;13.748;2023-09-30T02:51:52;17.17;;;16.03;;
1957;SDS011;979;51.076;13.748;2023-09-30T02:54:24;16.07;;;15.37;;
1957;SDS011;979;51.076;13.748;2023-09-30T02:57:10;17.67;;;16.30;;
1957;SDS011;979;51.076;13.748;2023-09-30T02:59:54;15.80;;;15.20;;
1957;SDS011;979;51.076;13.748;2023-09-30T03:02:34;15.90;;;15.27;;
1957;SDS011;979;51.076;13.748;2023-09-30T03:05:12;17.00;;;16.10;;
1957;SDS011;979;51.076;13.748;2023-09-30T03:07:47;16.60;;;15.63;;
1957;SDS011;979;51.076;13.748;2023-09-30T03:10:29;16.30;;;15.50;;
1957;SDS011;979;51.076;13.748;2023-09-30T03:13:07;16.53;;;15.67;;
1957;SDS011;979;51.076;13.748;2023-09-30T03:15:38;16.83;;;15.70;;
1957;SDS011;979;51.076;13.748;2023-09-30T03:18:09;16.07;;;15.13;;
1957;SDS011;979;51.076;13.748;2023-09-30T03:20:46;16.13;;;15.47;;
1957;SDS011;979;51.076;13.748;2023-09-30T03:23:27;16.20;;;15.30;;
1957;SDS011;979;51.076;13.748;2023-09-30T03:26:08;16.70;;;15.80;;
1957;SDS011;979;51.076;13.748;2023-09-30T03:28:46;17.17;;;16.30;;
1957;SDS011;979;51.076;13.748;2023-09-30T03:31:21;17.33;;;16.43;;
1957;SDS011;979;51.076;13.748;2023-09-30T03:34:13;18.97;;;17.37;;
1957;SDS011;979;51.076;13.748;2023-09-30T03:36:56;16.93;;;16.10;;
1957;SDS011;979;51.076;13.748;2023-09-30T03:39:43;17.97;;;16.77;;
1957;SDS011;979;51.076;13.748;2023-09-30T03:42:27;14.70;;;14.10;;
1957;SDS011;979;51.076;13.748;2023-09-30T03:45:02;16.80;;;15.97;;
1957;SDS011;979;51.076;13.748;2023-09-30T03:47:41;17.23;;;16.33;;
1957;SDS011;979;51.076;13.748;2023-09-30T03:50:25;16.97;;;16.03;;
1957;SDS011;979;51.076;13.748;2023-09-30T03:53:11;18.40;;;16.63;;
1957;SDS011;979;51.076;13.748;2023-09-30T03:55:54;19.43;;;17.83;;
1957;SDS011;979;51.076;13.748;2023-09-30T03:58:32;17.03;;;16.10;;
1957;SDS011;979;51.076;13.748;2023-09-30T04:01:07;16.93;;;15.83;;
1957;SDS011;979;51.076;13.748;2023-09-30T04:03:46;17.13;;;16.07;;
1957;SDS011;979;51.076;13.748;2023-09-30T04:06:29;17.70;;;16.10;;
1957;SDS011;979;51.076;13.748;2023-09-30T04:09:06;16.97;;;15.83;;
1957;SDS011;979;51.076;13.748;2023-09-30T04:11:43;17.40;;;16.20;;
1957;SDS011;979;51.076;13.748;2023-09-30T04:14:13;17.07;;;15.90;;
1957;SDS011;979;51.076;13.748;2023-09-30T04:16:53;17.10;;;15.93;;
1957;SDS011;979;51.076;13.748;2023-09-30T04:19:31;17.70;;;16.47;;
1957;SDS011;979;51.076;13.748;2023-09-30T04:22:02;17.23;;;15.87;;
1957;SDS011;979;51.076;13.748;2023-09-30T04:24:42;17.53;;;16.40;;
1957;SDS011;979;51.076;13.748;2023-09-30T04:27:22;16.97;;;16.00;;
1957;SDS011;979;51.076;13.748;2023-09-30T04:30:06;18.30;;;17.30;;
1957;SDS011;979;51.076;13.748;2023-09-30T04:32:47;18.23;;;17.03;;
1957;SDS011;979;51.076;13.748;2023-09-30T04:35:26;17.03;;;16.03;;
1957;SDS011;979;51.076;13.748;2023-09-30T04:38:17;18.67;;;17.20;;
1957;SDS011;979;51.076;13.748;2023-09-30T04:40:47;17.43;;;16.60;;
1957;SDS011;979;51.076;13.748;2023-09-30T04:43:25;16.53;;;15.53;;
1957;SDS011;979;51.076;13.748;2023-09-30T04:45:58;16.73;;;15.93;;
1957;SDS011;979;51.076;13.748;2023-09-30T04:48:36;18.07;;;16.77;;
1957;SDS011;979;51.076;13.748;2023-09-30T04:51:16;18.13;;;17.03;;
1957;SDS011;979;51.076;13.748;2023-09-30T04:54:01;18.63;;;16.83;;
1957;SDS011;979;51.076;13.748;2023-09-30T04:56:37;17.30;;;16.07;;
1957;SDS011;979;51.076;13.748;2023-09-30T04:59:18;18.73;;;16.97;;
1957;SDS011;979;51.076;13.748;2023-09-30T05:01:51;17.27;;;16.00;;
1957;SDS011;979;51.076;13.748;2023-09-30T05:04:24;16.90;;;15.87;;
1957;SDS011;979;51.076;13.748;2023-09-30T05:06:54;17.43;;;16.20;;
1957;SDS011;979;51.076;13.748;2023-09-30T05:09:22;17.30;;;16.30;;
1957;SDS011;979;51.076;13.748;2023-09-30T05:11:55;16.97;;;15.90;;
1957;SDS011;979;51.076;13.748;2023-09-30T05:14:23;16.13;;;14.93;;
1957;SDS011;979;51.076;13.748;2023-09-30T05:16:54;16.27;;;15.07;;
1957;SDS011;979;51.076;13.748;2023-09-30T05:19:28;17.00;;;16.10;;
1957;SDS011;979;51.076;13.748;2023-09-30T05:22:10;17.43;;;16.27;;
1957;SDS011;979;51.076;13.748;2023-09-30T05:24:47;17.60;;;16.40;;
1957;SDS011;979;51.076;13.748;2023-09-30T05:27:36;17.00;;;15.97;;
1957;SDS011;979;51.076;13.748;2023-09-30T05:30:09;18.27;;;16.60;;
1957;SDS011;979;51.076;13.748;2023-09-30T05:32:55;16.87;;;15.87;;
1957;SDS011;979;51.076;13.748;2023-09-30T05:35:33;17.30;;;16.27;;
1957;SDS011;979;51.076;13.748;2023-09-30T05:38:11;17.37;;;16.27;;
1957;SDS011;979;51.076;13.748;2023-09-30T05:40:50;16.80;;;15.80;;
1957;SDS011;979;51.076;13.748;2023-09-30T05:43:32;17.93;;;16.40;;
1957;SDS011;979;51.076;13.748;2023-09-30T05:46:09;17.33;;;15.90;;
1957;SDS011;979;51.076;13.748;2023-09-30T05:48:45;20.23;;;18.60;;
1957;SDS011;979;51.076;13.748;2023-09-30T05:51:31;18.30;;;16.93;;
1957;SDS011;979;51.076;13.748;2023-09-30T05:54:13;18.60;;;17.40;;
1957;SDS011;979;51.076;13.748;2023-09-30T05:56:46;17.63;;;16.53;;
1957;SDS011;979;51.076;13.748;2023-09-30T05:59:23;17.40;;;16.50;;
1957;SDS011;979;51.076;13.748;2023-09-30T06:02:00;17.27;;;16.37;;
1957;SDS011;979;51.076;13.748;2023-09-30T06:04:38;18.17;;;16.70;;
1957;SDS011;979;51.076;13.748;2023-09-30T06:07:16;18.43;;;17.37;;
1957;SDS011;979;51.076;13.748;2023-09-30T06:09:52;18.30;;;17.17;;
1957;SDS011;979;51.076;13.748;2023-09-30T06:12:41;17.53;;;16.63;;
1957;SDS011;979;51.076;13.748;2023-09-30T06:15:13;18.17;;;16.70;;
1957;SDS011;979;51.076;13.748;2023-09-30T06:17:55;19.77;;;18.20;;
1957;SDS011;979;51.076;13.748;2023-09-30T06:20:27;18.00;;;16.80;;
1957;SDS011;979;51.076;13.748;2023-09-30T06:23:08;18.23;;;16.73;;
1957;SDS011;979;51.076;13.748;2023-09-30T06:26:03;17.27;;;16.27;;
1957;SDS011;979;51.076;13.748;2023-09-30T06:28:46;17.30;;;16.30;;
1957;SDS011;979;51.076;13.748;2023-09-30T06:31:23;16.90;;;15.70;;
1957;SDS011;979;51.076;13.748;2023-09-30T06:34:00;18.00;;;16.70;;
1957;SDS011;979;51.076;13.748;2023-09-30T06:36:37;18.33;;;16.90;;
1957;SDS011;979;51.076;13.748;2023-09-30T06:39:37;17.60;;;16.00;;
1957;SDS011;979;51.076;13.748;2023-09-30T06:42:16;17.73;;;16.50;;
1957;SDS011;979;51.076;13.748;2023-09-30T06:44:45;16.07;;;14.70;;
1957;SDS011;979;51.076;13.748;2023-09-30T06:50:29;18.50;;;17.10;;
1957;SDS011;979;51.076;13.748;2023-09-30T06:53:03;17.53;;;16.53;;
1957;SDS011;979;51.076;13.748;2023-09-30T06:55:39;16.97;;;15.40;;
1957;SDS011;979;51.076;13.748;2023-09-30T06:58:19;18.17;;;16.90;;
1957;SDS011;979;51.076;13.748;2023-09-30T07:00:53;17.10;;;15.83;;
1957;SDS011;979;51.076;13.748;2023-09-30T07:03:25;16.90;;;15.87;;
1957;SDS011;979;51.076;13.748;2023-09-30T07:06:01;15.87;;;14.87;;
1957;SDS011;979;51.076;13.748;2023-09-30T07:08:33;18.03;;;16.83;;
1957;SDS011;979;51.076;13.748;2023-09-30T07:11:05;17.10;;;15.80;;
1957;SDS011;979;51.076;13.748;2023-09-30T07:13:52;16.20;;;15.10;;
1957;SDS011;979;51.076;13.748;2023-09-30T07:16:24;16.20;;;15.20;;
1957;SDS011;979;51.076;13.748;2023-09-30T07:19:01;17.80;;;16.50;;
1957;SDS011;979;51.076;13.748;2023-09-30T07:21:43;17.87;;;16.40;;
1957;SDS011;979;51.076;13.748;2023-09-30T07:24:33;17.90;;;16.70;;
1957;SDS011;979;51.076;13.748;2023-09-30T07:27:10;18.50;;;17.30;;
1957;SDS011;979;51.076;13.748;2023-09-30T07:30:02;19.60;;;18.50;;
1957;SDS011;979;51.076;13.748;2023-09-30T07:33:07;18.37;;;17.10;;
1957;SDS011;979;51.076;13.748;2023-09-30T07:35:59;17.93;;;16.83;;
1957;SDS011;979;51.076;13.748;2023-09-30T07:45:10;18.30;;;17.10;;
1957;SDS011;979;51.076;13.748;2023-09-30T07:47:49;17.97;;;16.87;;
1957;SDS011;979;51.076;13.748;2023-09-30T07:50:57;22.57;;;18.50;;
1957;SDS011;979;51.076;13.748;2023-09-30T07:53:33;18.43;;;17.07;;
1957;SDS011;979;51.076;13.748;2023-09-30T07:56:22;18.57;;;17.47;;
1957;SDS011;979;51.076;13.748;2023-09-30T07:59:23;16.67;;;15.77;;
1957;SDS011;979;51.076;13.748;2023-09-30T08:02:35;17.70;;;16.80;;
1957;SDS011;979;51.076;13.748;2023-09-30T08:08:07;18.00;;;16.57;;
1957;SDS011;979;51.076;13.748;2023-09-30T08:13:51;18.10;;;16.50;;
1957;SDS011;979;51.076;13.748;2023-09-30T08:17:06;19.23;;;17.30;;
1957;SDS011;979;51.076;13.748;2023-09-30T08:19:47;26.43;;;16.33;;
1957;SDS011;979;51.076;13.748;2023-09-30T08:22:30;17.60;;;16.00;;
1957;SDS011;979;51.076;13.748;2023-09-30T08:25:11;17.60;;;16.03;;
1957;SDS011;979;51.076;13.748;2023-09-30T08:27:50;18.27;;;16.83;;
1957;SDS011;979;51.076;13.748;2023-09-30T08:30:32;16.33;;;15.23;;
1957;SDS011;979;51.076;13.748;2023-09-30T08:33:09;18.67;;;17.30;;
1957;SDS011;979;51.076;13.748;2023-09-30T08:36:00;17.10;;;16.10;;
1957;SDS011;979;51.076;13.748;2023-09-30T08:38:35;18.10;;;16.43;;
1957;SDS011;979;51.076;13.748;2023-09-30T08:41:46;17.83;;;16.60;;
1957;SDS011;979;51.076;13.748;2023-09-30T08:44:17;17.87;;;16.70;;
1957;SDS011;979;51.076;13.748;2023-09-30T08:46:48;17.37;;;16.17;;
1957;SDS011;979;51.076;13.748;2023-09-30T08:49:29;19.30;;;16.10;;
1957;SDS011;979;51.076;13.748;2023-09-30T08:52:05;17.23;;;16.30;;
1957;SDS011;979;51.076;13.748;2023-09-30T08:54:44;17.83;;;16.80;;
1957;SDS011;979;51.076;13.748;2023-09-30T08:57:23;18.43;;;17.00;;
1957;SDS011;979;51.076;13.748;2023-09-30T08:59:58;17.23;;;15.87;;
1957;SDS011;979;51.076;13.748;2023-09-30T09:02:27;17.83;;;16.40;;
1957;SDS011;979;51.076;13.748;2023-09-30T09:04:57;17.33;;;16.23;;
1957;SDS011;979;51.076;13.748;2023-09-30T09:08:04;18.20;;;17.10;;
1957;SDS011;979;51.076;13.748;2023-09-30T09:11:04;17.10;;;16.20;;
1957;SDS011;979;51.076;13.748;2023-09-30T09:13:45;18.07;;;16.60;;
1957;SDS011;979;51.076;13.748;2023-09-30T09:16:16;16.77;;;15.87;;
1957;SDS011;979;51.076;13.748;2023-09-30T09:18:46;17.13;;;15.50;;
1957;SDS011;979;51.076;13.748;2023-09-30T09:21:19;18.47;;;16.70;;
1957;SDS011;979;51.076;13.748;2023-09-30T09:23:57;17.63;;;16.20;;
1957;SDS011;979;51.076;13.748;2023-09-30T09:26:30;17.80;;;16.43;;
1957;SDS011;979;51.076;13.748;2023-09-30T09:29:08;17.00;;;15.90;;
1957;SDS011;979;51.076;13.748;2023-09-30T09:31:37;18.60;;;17.30;;
1957;SDS011;979;51.076;13.748;2023-09-30T09:34:13;17.00;;;16.07;;
1957;SDS011;979;51.076;13.748;2023-09-30T09:36:45;17.30;;;16.17;;
1957;SDS011;979;51.076;13.748;2023-09-30T09:39:20;15.50;;;14.23;;
1957;SDS011;979;51.076;13.748;2023-09-30T09:42:00;17.80;;;16.20;;
1957;SDS011;979;51.076;13.748;2023-09-30T09:44:32;17.63;;;16.37;;
1957;SDS011;979;51.076;13.748;2023-09-30T09:47:04;16.67;;;15.67;;
1957;SDS011;979;51.076;13.748;2023-09-30T09:49:39;18.17;;;16.50;;
1957;SDS011;979;51.076;13.748;2023-09-30T09:52:13;17.20;;;16.07;;
1957;SDS011;979;51.076;13.748;2023-09-30T09:54:50;16.80;;;15.23;;
1957;SDS011;979;51.076;13.748;2023-09-30T09:57:19;15.57;;;14.47;;
1957;SDS011;979;51.076;13.748;2023-09-30T10:00:01;13.97;;;13.10;;
1957;SDS011;979;51.076;13.748;2023-09-30T10:02:39;16.53;;;15.63;;
1957;SDS011;979;51.076;13.748;2023-09-30T10:05:17;17.63;;;16.47;;
1957;SDS011;979;51.076;13.748;2023-09-30T10:08:20;16.90;;;15.50;;
1957;SDS011;979;51.076;13.748;2023-09-30T10:11:41;16.50;;;15.33;;
1957;SDS011;979;51.076;13.748;2023-09-30T10:14:40;17.60;;;16.50;;
1957;SDS011;979;51.076;13.748;2023-09-30T10:20:37;18.40;;;17.20;;
1957;SDS011;979;51.076;13.748;2023-09-30T10:23:35;17.27;;;16.30;;
1957;SDS011;979;51.076;13.748;2023-09-30T10:26:16;17.50;;;16.10;;
1957;SDS011;979;51.076;13.748;2023-09-30T10:29:02;16.80;;;15.70;;
1957;SDS011;979;51.076;13.748;2023-09-30T10:31:51;17.03;;;15.80;;
1957;SDS011;979;51.076;13.748;2023-09-30T10:34:38;18.10;;;17.00;;
1957;SDS011;979;51.076;13.748;2023-09-30T10:37:22;17.40;;;16.30;;
1957;SDS011;979;51.076;13.748;2023-09-30T10:39:57;18.03;;;16.80;;
1957;SDS011;979;51.076;13.748;2023-09-30T10:42:55;17.67;;;16.37;;
1957;SDS011;979;51.076;13.748;2023-09-30T10:45:50;17.40;;;16.50;;
1957;SDS011;979;51.076;13.748;2023-09-30T10:48:35;17.47;;;16.37;;
1957;SDS011;979;51.076;13.748;2023-09-30T10:51:27;16.90;;;15.73;;
1957;SDS011;979;51.076;13.748;2023-09-30T10:54:31;15.23;;;14.37;;
1957;SDS011;979;51.076;13.748;2023-09-30T10:57:11;16.43;;;15.60;;
1957;SDS011;979;51.076;13.748;2023-09-30T10:59:40;16.57;;;15.90;;
1957;SDS011;979;51.076;13.748;2023-09-30T11:02:22;17.07;;;16.00;;
1957;SDS011;979;51.076;13.748;2023-09-30T11:05:08;18.47;;;16.60;;
1957;SDS011;979;51.076;13.748;2023-09-30T11:07:47;17.00;;;15.87;;
1957;SDS011;979;51.076;13.748;2023-09-30T11:10:19;17.33;;;16.27;;
1957;SDS011;979;51.076;13.748;2023-09-30T11:12:57;16.93;;;15.93;;
1957;SDS011;979;51.076;13.748;2023-09-30T11:15:46;17.70;;;16.40;;
1957;SDS011;979;51.076;13.748;2023-09-30T11:18:31;16.37;;;15.47;;
1957;SDS011;979;51.076;13.748;2023-09-30T11:21:13;17.70;;;16.03;;
1957;SDS011;979;51.076;13.748;2023-09-30T11:24:02;15.83;;;15.10;;
1957;SDS011;979;51.076;13.748;2023-09-30T11:26:54;16.30;;;15.40;;
1957;SDS011;979;51.076;13.748;2023-09-30T11:29:32;15.20;;;14.30;;
1957;SDS011;979;51.076;13.748;2023-09-30T11:32:22;16.13;;;15.30;;
1957;SDS011;979;51.076;13.748;2023-09-30T11:35:13;17.43;;;16.60;;
1957;SDS011;979;51.076;13.748;2023-09-30T11:37:58;17.20;;;16.07;;
1957;SDS011;979;51.076;13.748;2023-09-30T11:40:27;16.10;;;14.80;;
1957;SDS011;979;51.076;13.748;2023-09-30T11:43:09;16.43;;;15.33;;
1957;SDS011;979;51.076;13.748;2023-09-30T11:45:41;16.67;;;15.47;;
1957;SDS011;979;51.076;13.748;2023-09-30T11:48:17;15.60;;;14.80;;
1957;SDS011;979;51.076;13.748;2023-09-30T11:51:02;16.77;;;15.57;;
1957;SDS011;979;51.076;13.748;2023-09-30T11:54:00;14.93;;;14.27;;
1957;SDS011;979;51.076;13.748;2023-09-30T11:56:34;15.23;;;14.40;;
1957;SDS011;979;51.076;13.748;2023-09-30T11:59:03;16.00;;;14.90;;
1957;SDS011;979;51.076;13.748;2023-09-30T12:01:43;14.57;;;13.67;;
1957;SDS011;979;51.076;13.748;2023-09-30T12:04:38;15.57;;;14.77;;
1957;SDS011;979;51.076;13.748;2023-09-30T12:07:29;16.37;;;15.27;;
1957;SDS011;979;51.076;13.748;2023-09-30T12:10:07;15.73;;;14.83;;
1957;SDS011;979;51.076;13.748;2023-09-30T12:12:49;16.10;;;15.30;;
1957;SDS011;979;51.076;13.748;2023-09-30T12:15:30;16.90;;;15.90;;
1957;SDS011;979;51.076;13.748;2023-09-30T12:18:13;17.30;;;16.10;;
1957;SDS011;979;51.076;13.748;2023-09-30T12:20:53;16.93;;;16.00;;
1957;SDS011;979;51.076;13.748;2023-09-30T12:23:25;17.50;;;16.40;;
1957;SDS011;979;51.076;13.748;2023-09-30T12:26:01;17.00;;;15.97;;
1957;SDS011;979;51.076;13.748;2023-09-30T12:28:57;17.93;;;16.97;;
1957;SDS011;979;51.076;13.748;2023-09-30T12:31:36;15.80;;;15.10;;
1957;SDS011;979;51.076;13.748;2023-09-30T12:34:22;18.00;;;16.70;;
1957;SDS011;979;51.076;13.748;2023-09-30T12:36:59;16.93;;;16.03;;
1957;SDS011;979;51.076;13.748;2023-09-30T12:39:58;16.63;;;15.70;;
1957;SDS011;979;51.076;13.748;2023-09-30T12:45:28;16.77;;;16.07;;
1957;SDS011;979;51.076;13.748;2023-09-30T12:48:07;15.83;;;15.13;;
1957;SDS011;979;51.076;13.748;2023-09-30T12:50:36;16.30;;;15.20;;
1957;SDS011;979;51.076;13.748;2023-09-30T12:53:04;16.27;;;15.50;;
1957;SDS011;979;51.076;13.748;2023-09-30T12:55:38;17.67;;;16.67;;
1957;SDS011;979;51.076;13.748;2023-09-30T12:58:16;17.57;;;16.43;;
1957;SDS011;979;51.076;13.748;2023-09-30T13:01:00;18.53;;;17.27;;
1957;SDS011;979;51.076;13.748;2023-09-30T13:03:48;17.57;;;16.63;;
1957;SDS011;979;51.076;13.748;2023-09-30T13:06:38;17.30;;;16.60;;
1957;SDS011;979;51.076;13.748;2023-09-30T13:09:18;16.50;;;15.80;;
1957;SDS011;979;51.076;13.748;2023-09-30T13:12:15;16.83;;;15.80;;
1957;SDS011;979;51.076;13.748;2023-09-30T13:14:56;17.80;;;16.80;;
1957;SDS011;979;51.076;13.748;2023-09-30T13:17:45;17.40;;;16.40;;
1957;SDS011;979;51.076;13.748;2023-09-30T13:20:47;15.03;;;14.23;;
1957;SDS011;979;51.076;13.748;2023-09-30T13:23:25;16.30;;;15.40;;
1957;SDS011;979;51.076;13.748;2023-09-30T13:26:11;14.97;;;14.17;;
1957;SDS011;979;51.076;13.748;2023-09-30T13:29:12;17.27;;;16.03;;
1957;SDS011;979;51.076;13.748;2023-09-30T13:31:47;15.77;;;15.07;;
1957;SDS011;979;51.076;13.748;2023-09-30T13:34:47;16.20;;;15.40;;
1957;SDS011;979;51.076;13.748;2023-09-30T13:37:25;16.27;;;15.57;;
1957;SDS011;979;51.076;13.748;2023-09-30T13:40:27;16.03;;;15.33;;
1957;SDS011;979;51.076;13.748;2023-09-30T13:43:11;16.20;;;15.40;;
1957;SDS011;979;51.076;13.748;2023-09-30T13:45:57;15.77;;;14.87;;
1957;SDS011;979;51.076;13.748;2023-09-30T13:49:01;17.40;;;16.40;;
1957;SDS011;979;51.076;13.748;2023-09-30T13:52:13;16.27;;;15.57;;
1957;SDS011;979;51.076;13.748;2023-09-30T13:55:23;16.23;;;15.47;;
1957;SDS011;979;51.076;13.748;2023-09-30T13:58:15;15.87;;;14.97;;
1957;SDS011;979;51.076;13.748;2023-09-30T14:01:00;15.43;;;14.77;;
1957;SDS011;979;51.076;13.748;2023-09-30T14:04:13;17.20;;;16.20;;
1957;SDS011;979;51.076;13.748;2023-09-30T14:07:31;16.03;;;15.30;;
1957;SDS011;979;51.076;13.748;2023-09-30T14:10:37;16.67;;;15.37;;
1957;SDS011;979;51.076;13.748;2023-09-30T14:13:22;14.97;;;14.27;;
1957;SDS011;979;51.076;13.748;2023-09-30T14:16:20;15.17;;;14.57;;
1957;SDS011;979;51.076;13.748;2023-09-30T14:19:24;16.30;;;15.30;;
1957;SDS011;979;51.076;13.748;2023-09-30T14:22:15;15.87;;;15.17;;
1957;SDS011;979;51.076;13.748;2023-09-30T14:25:09;16.67;;;15.67;;
1957;SDS011;979;51.076;13.748;2023-09-30T14:27:58;14.80;;;14.10;;
1957;SDS011;979;51.076;13.748;2023-09-30T14:30:27;15.33;;;14.33;;
1957;SDS011;979;51.076;13.748;2023-09-30T14:33:43;14.30;;;13.80;;
1957;SDS011;979;51.076;13.748;2023-09-30T14:36:34;16.87;;;15.93;;
1957;SDS011;979;51.076;13.748;2023-09-30T14:39:18;14.97;;;14.30;;
1957;SDS011;979;51.076;13.748;2023-09-30T14:42:25;16.03;;;14.93;;
1957;SDS011;979;51.076;13.748;2023-09-30T14:45:19;15.57;;;14.80;;
1957;SDS011;979;51.076;13.748;2023-09-30T14:47:48;16.40;;;15.40;;
1957;SDS011;979;51.076;13.748;2023-09-30T14:50:18;13.87;;;12.90;;
1957;SDS011;979;51.076;13.748;2023-09-30T14:52:50;15.83;;;15.10;;
1957;SDS011;979;51.076;13.748;2023-09-30T14:55:22;15.60;;;15.00;;
1957;SDS011;979;51.076;13.748;2023-09-30T14:57:52;16.50;;;15.40;;
1957;SDS011;979;51.076;13.748;2023-09-30T15:00:44;16.27;;;15.27;;
1957;SDS011;979;51.076;13.748;2023-09-30T15:03:24;15.60;;;14.70;;
1957;SDS011;979;51.076;13.748;2023-09-30T15:10:48;15.60;;;14.90;;
1957;SDS011;979;51.076;13.748;2023-09-30T15:13:24;16.47;;;15.50;;
1957;SDS011;979;51.076;13.748;2023-09-30T15:16:22;16.23;;;15.40;;
1957;SDS011;979;51.076;13.748;2023-09-30T15:19:22;16.30;;;15.50;;
1957;SDS011;979;51.076;13.748;2023-09-30T15:22:09;15.90;;;15.10;;
1957;SDS011;979;51.076;13.748;2023-09-30T15:24:51;16.67;;;15.50;;
1957;SDS011;979;51.076;13.748;2023-09-30T15:27:33;16.10;;;15.33;;
1957;SDS011;979;51.076;13.748;2023-09-30T15:30:09;16.43;;;15.53;;
1957;SDS011;979;51.076;13.748;2023-09-30T15:33:16;16.83;;;15.87;;
1957;SDS011;979;51.076;13.748;2023-09-30T15:36:13;15.50;;;14.70;;
1957;SDS011;979;51.076;13.748;2023-09-30T15:39:22;15.50;;;14.90;;
1957;SDS011;979;51.076;13.748;2023-09-30T15:45:11;16.10;;;15.30;;
1957;SDS011;979;51.076;13.748;2023-09-30T15:54:05;15.87;;;14.97;;
1957;SDS011;979;51.076;13.748;2023-09-30T15:56:46;17.23;;;16.23;;
1957;SDS011;979;51.076;13.748;2023-09-30T15:59:32;18.80;;;17.40;;
1957;SDS011;979;51.076;13.748;2023-09-30T16:02:25;15.50;;;14.73;;
1957;SDS011;979;51.076;13.748;2023-09-30T16:05:07;19.00;;;17.70;;
1957;SDS011;979;51.076;13.748;2023-09-30T16:08:19;18.17;;;17.07;;
1957;SDS011;979;51.076;13.748;2023-09-30T16:11:39;16.10;;;15.10;;
1957;SDS011;979;51.076;13.748;2023-09-30T16:14:39;17.63;;;16.53;;
1957;SDS011;979;51.076;13.748;2023-09-30T16:17:23;18.63;;;17.50;;
1957;SDS011;979;51.076;13.748;2023-09-30T16:20:11;22.83;;;20.80;;
1957;SDS011;979;51.076;13.748;2023-09-30T16:22:58;19.57;;;18.17;;
1957;SDS011;979;51.076;13.748;2023-09-30T16:25:46;18.30;;;17.20;;
1957;SDS011;979;51.076;13.748;2023-09-30T16:28:22;19.60;;;17.83;;
1957;SDS011;979;51.076;13.748;2023-09-30T16:31:23;17.67;;;16.40;;
1957;SDS011;979;51.076;13.748;2023-09-30T16:34:08;19.37;;;18.17;;
1957;SDS011;979;51.076;13.748;2023-09-30T16:36:37;19.13;;;17.80;;
1957;SDS011;979;51.076;13.748;2023-09-30T16:39:06;19.53;;;17.10;;
1957;SDS011;979;51.076;13.748;2023-09-30T16:41:48;17.30;;;16.30;;
1957;SDS011;979;51.076;13.748;2023-09-30T16:44:26;17.13;;;16.27;;
1957;SDS011;979;51.076;13.748;2023-09-30T16:47:12;17.30;;;16.30;;
1957;SDS011;979;51.076;13.748;2023-09-30T16:50:12;16.70;;;15.80;;
1957;SDS011;979;51.076;13.748;2023-09-30T16:53:05;16.20;;;15.23;;
1957;SDS011;979;51.076;13.748;2023-09-30T16:56:24;17.80;;;16.30;;